Henderson, Nevada Weather observations

Data are for observation ending at time listed.
 Day   Time    Ave.   Ave.  Ave.  Vector   Max.   Stn.    Total    Solar   Ave.  
  of    of     Air    Rel.  Wind   Wind    Wind   Baro.  Precip.   Rad.    Soil  
Year   Day     Temp.  Hum.  Speed  Dir.    Gust   Pres.                    Temp. 
2015   (PST)    F      %     mph   deg.    mph     mb.     in.     W/m2     F   
------------------------------------------------------------------------------
 216    4:20   85.6    15    2.1   152      5.7   934.1    0.00       0    80.8
 216    4:30   84.7    16    1.3   108      2.9   934.2    0.00       0    80.4
 216    4:40   83.3    17    0.3    59      1.2   934.3    0.00       0    79.6
 216    4:50   82.0    18    0.3   246      1.2   934.5    0.00       6    78.6
 216    5:00   81.4    18    0.2   222      1.3   934.5    0.00       7    77.8
 216    5:10   80.9    19    0.3   302      1.5   934.6    0.00      10    77.2
 216    5:20   81.0    19    0.8   189      2.8   934.7    0.00      19    76.6
 216    5:30   82.7    18    1.2   120      2.4   934.9    0.00      38    76.8
 216    5:40   83.9    18    1.2   120      2.3   935.0    0.00      80    77.3
 216    5:50   84.7    17    1.7   116      3.1   935.1    0.00     138    78.0
 216    6:00   85.7    16    1.9   112      3.5   935.2    0.00     173    79.0
 216    6:10   88.1    15    1.2   121      2.8   935.3    0.00     207    80.5
 216    6:20   89.5    14    1.0   134      2.1   935.4    0.00     244    83.5
 216    6:30   91.7    14    0.9   167      3.3   935.5    0.00     281    86.5
 216    6:40   92.4    14    0.4   171      2.1   935.7    0.00     317    88.9
 216    6:50   92.2    13    1.1   126      2.9   935.8    0.00     355    91.4
 216    7:00   91.6    13    2.9   115      5.3   935.8    0.00     393    93.2
 216    7:10   92.0    13    2.3   109      4.8   935.9    0.00     432    94.6
 216    7:20   93.2    13    1.2    82      3.4   935.9    0.00     470    96.3
 216    7:30   94.6    12    1.2   121      3.5   935.9    0.00     507    98.1
 216    7:40   95.2    12    1.8   102      3.9   936.0    0.00     543    99.7
 216    7:50   95.5    12    2.4   112      5.3   936.0    0.00     581    100.6
 216    8:00   95.4    11    2.4   115      7.8   936.0    0.00     618    101.4
 216    8:10   96.9    11    2.0   172      6.4   936.0    0.00     652    102.7
 216    8:20   97.8    11    1.9   199      8.2   935.9    0.00     687    104.2
 216    8:30   97.7    11    2.7   119      7.8   935.9    0.00     719    105.0
 216    8:40   99.0    11    1.4   197      4.3   936.0    0.00     749    105.9
 216    8:50   98.3    11    3.0   120      7.7   936.1    0.00     782    106.8
 216    9:00   98.2    11    4.1   108      8.3   936.0    0.00     815    106.9
 216    9:10   98.3    11    3.7   105      9.5   936.1    0.00     844    107.0
 216    9:20   98.9    11    3.3    93      8.6   936.1    0.00     875    107.4
 216    9:30   99.0    10    3.7    96      9.9   936.1    0.00     903    108.0
 216    9:40   99.3    10    4.3   104      8.4   936.2    0.00     930    108.1
 216    9:50  100.2    10    3.9   107     10.2   936.1    0.00     953    108.8
 216   10:00  101.3     9    3.4   124      8.5   936.2    0.00     975    109.2
 216   10:10  101.8     9    4.0   115     10.8   936.2    0.00     994    109.7
 216   10:20  103.0     8    3.8   166     12.9   936.1    0.00    1017    110.5
 216   10:30  103.0     9    3.4   137      9.5   936.0    0.00    1030    111.1
 216   10:40  103.5     8    3.1   135      8.1   935.9    0.00    1045    111.6
 216   10:50  104.0     8    6.0   112     11.9   935.7    0.00    1057    111.7
 216   11:00  104.5     8    2.7   128      9.2   935.7    0.00    1072    111.8
 216   11:10  105.5     7    5.1   130     10.8   935.7    0.00    1080    112.5
 216   11:20  105.0     7    3.4   146     10.7   935.7    0.00    1091    112.6
 216   11:30  104.7     7    3.2   110      8.8   935.5    0.00    1084    112.5
 216   11:40  106.6     6    4.5   122     11.0   935.3    0.00    1104    112.5
 216   11:50  106.0     6    5.3   117     11.4   935.2    0.00    1104    112.5
 216   12:00  106.2     6    4.0   161     12.4   935.2    0.00    1104    112.4
 216   12:10  106.8     6    4.1   182      8.8   935.2    0.00    1104    112.5
 216   12:20  107.6     6    4.0   129     11.2   935.1    0.00    1103    112.8
 216   12:30  107.2     6    6.6   114     12.2   935.0    0.00    1097    112.6
 216   12:40  107.4     6    6.9   112     18.3   934.9    0.00    1077    112.3
 216   12:50  107.9     6    5.4   118     14.3   934.8    0.00    1106    112.2
 216   13:00  107.8     6    3.8   151      8.3   934.7    0.00     985    112.4
 216   13:10  107.8     5    4.1   158      9.8   934.5    0.00    1132    112.8
 216   13:20  108.4     5    3.7   159     12.6   934.4    0.00     956    113.6
 216   13:30  107.7     6    4.3   133     12.9   934.3    0.00     970    113.6
 216   13:40  108.3     6    3.3   180     12.3   934.2    0.00     980    114.2
 216   13:50  107.0     6    6.0   189     16.6   934.1    0.00     768    114.1
 216   14:00  108.0     6    4.1   201     10.9   934.0    0.00     920    113.6
 216   14:10  107.7     7    5.3   249     14.4   934.0    0.00     886    113.8
 216   14:20  106.4     7    7.8   231     15.3   933.8    0.00     659    112.8
 216   14:30  107.0     7    7.6   252     14.8   933.7    0.00     883    112.2
 216   14:40  107.3     7    8.2   250     18.3   933.6    0.00     877    112.4
 216   14:50  106.9     7    5.9   250     14.8   933.6    0.00     804    112.4
 216   15:00  107.2     7    3.9   232     12.1   933.5    0.00     647    112.3
 216   15:10  106.5     7    7.5   269     16.0   933.3    0.00     675    112.0
 216   15:20  105.6     7    7.4   256     14.8   933.3    0.00     430    110.8
 216   15:30  105.5     7    7.3   261     13.1   933.3    0.00     650    109.6
 216   15:40  106.7     7    5.1   250     11.6   933.2    0.00     712    110.2
 216   15:50  106.2     7    5.0   261     14.3   933.1    0.00     478    110.8
 216   16:00  105.6     7    5.3   230     12.6   933.2    0.00     274    109.6
 216   16:10  105.6     7    5.1   244     11.6   933.2    0.00     441    108.3
 216   16:20  105.3     7    5.0   254     12.1   933.0    0.00     385    107.9
 216   16:30  105.5     7    6.2   238     14.0   932.9    0.00     468    107.9
 216   16:40  106.2     7    5.2   230     11.5   932.8    0.00     450    108.5
 216   16:50  105.8     7    5.3   252     12.7   932.9    0.00     364    108.6
 216   17:00  104.4     8    5.8   252     12.6   932.8    0.00     173    107.9
 216   17:10  103.2     8    5.4   245     16.4   932.8    0.00      76    106.0
 216   17:20  102.5     8    6.2   257     14.1   932.7    0.00      84    104.2
 216   17:30  102.4     8    5.0   241     11.4   932.8    0.00      90    102.9
 216   17:40  103.0     8    5.5   248     13.3   932.7    0.00     257    102.5
 216   17:50  103.7     8    5.2   243     12.1   932.8    0.00     216    103.4
 216   18:00  103.5     8    4.9   236     14.2   932.9    0.00     163    103.8
 216   18:10  103.0     8    5.6   233     13.4   933.0    0.00     112    103.7
 216   18:20  102.5     8    4.9   242     11.4   933.1    0.00      74    103.1
 216   18:30  101.6     8    4.9   243     11.2   933.2    0.00      31    102.1
 216   18:40  100.8     8    4.0   233     13.2   933.2    0.00      10    100.7
 216   18:50  100.2     9    2.8   225      7.7   933.2    0.00       7    99.1
 216   19:00   99.7     9    3.4   224      9.6   933.1    0.00       2    97.7
 216   19:10   99.4     9    3.6   215      7.4   933.1    0.00       0    96.9
 216   19:20   98.9    10    3.2   212      7.8   933.2    0.00       0    96.0
 216   19:30   98.5    10    2.8   213      8.1   933.4    0.00       0    95.1
 216   19:40   98.4    10    4.4   192     10.2   933.6    0.00       0    94.3
 216   19:50   98.5     9    3.6   185      8.0   933.6    0.00       0    94.1
 216   20:00   98.7     9    5.5   181     11.4   933.6    0.00       0    94.0
 216   20:10   97.9    10    2.3   155      7.5   933.7    0.00       0    93.8
 216   20:20   96.6    10    1.8   150      5.6   933.7    0.00       0    93.2
 216   20:30   96.0    10    2.1   158      7.3   933.7    0.00       0    92.5
 216   20:40   95.5    10    2.5   157      5.8   933.8    0.00       0    91.9
 216   20:50   95.7    10    2.2   143      4.5   933.8    0.00       0    91.7
 216   21:00   95.6    10    2.2   143      6.9   933.9    0.00       0    91.4
 216   21:10   95.2    10    2.0   152      5.3   933.9    0.00       0    91.1
 216   21:20   95.0    10    2.5   168      6.7   933.9    0.00       0    90.8
 216   21:30   94.4    11    3.6   187      8.3   933.9    0.00       0    90.3
 216   21:40   94.4    10    2.2   226      8.0   934.0    0.00       0    89.9
 216   21:50   95.1    11    2.9   220      7.7   934.0    0.00       0    89.8
 216   22:00   95.3    11    2.8   225      9.9   934.1    0.00       0    90.0
 216   22:10   95.6    11    3.1   232     10.6   934.1    0.00       0    90.3
 216   22:20   95.0    12    3.6   220     14.0   934.2    0.00       0    90.3
 216   22:30   94.6    12    2.9   219      8.0   934.2    0.00       0    90.2
 216   22:40   94.2    13    3.7   222     10.8   934.1    0.00       0    90.0
 216   22:50   94.0    13    3.7   219     10.9   934.2    0.00       0    89.9
 216   23:00   93.8    13    3.5   225     10.2   934.3    0.00       0    89.8
 216   23:10   93.7    13    4.7   229     14.0   934.3    0.00       0    89.8
 216   23:20   93.2    13    4.6   204      8.8   934.3    0.00       0    89.6
 216   23:30   93.2    14    5.4   189     11.2   934.3    0.00       0    89.3
 216   23:40   93.6    14    8.0   191     16.4   934.4    0.00       0    89.4
 216   23:50   93.7    14    6.4   198     14.0   934.3    0.00       0    89.7
 217    0:00   93.2    14    7.1   189     14.3   934.3    0.00       0    89.6
 217    0:10   92.8    14    5.0   198     11.8   934.2    0.00       0    89.4
 217    0:20   92.2    14    4.4   196      9.7   934.1    0.00       0    88.8
 217    0:30   92.4    14    5.3   200     13.2   934.1    0.00       0    88.5
 217    0:40   91.9    14    3.1   138      9.8   934.2    0.00       0    88.3
 217    0:50   91.5    14    5.0   108      8.2   934.2    0.00       0    88.1
 217    1:00   90.3    14    5.3   105      8.6   934.2    0.00       0    87.9
 217    1:10   89.6    15    3.6   110      7.2   934.2    0.00       0    87.3
 217    1:20   89.1    15    1.8   119      6.6   934.2    0.00       0    86.5
 217    1:30   90.7    14    2.6   126      5.9   934.1    0.00       0    86.1
 217    1:40   91.0    14    1.9   145      6.1   934.2    0.00       0    86.0
 217    1:50   90.1    15    2.4   104      5.1   934.3    0.00       0    85.7
 217    2:00   89.2    15    3.2   105      5.3   934.4    0.00       0    85.4
 217    2:10   88.6    15    2.1    96      5.5   934.4    0.00       0    85.0
 217    2:20   87.8    16    1.2   305      4.4   934.4    0.00       0    84.3
 217    2:30   86.9    17    0.9   175      3.3   934.3    0.00       0    83.5
 217    2:40   86.5    17    2.4   206      6.1   934.4    0.00       0    82.7
 217    2:50   88.2    16    3.1    98      6.6   934.5    0.00       0    83.0
 217    3:00   87.9    16    3.6   102      5.3   934.5    0.00       0    83.2
 217    3:10   87.2    17    2.5   166      6.7   934.6    0.00       0    83.2
 217    3:20   85.3    19    1.1   310      4.0   934.7    0.00       0    82.2
 217    3:30   84.5    19    2.2    81      6.3   934.7    0.00       0    81.4
 217    3:40   87.3    16    1.8   105      4.3   934.6    0.00       0    81.5
 217    3:50   87.7    16    2.4   109      6.9   934.7    0.00       0    81.9
 217    4:00   86.2    17    0.8    80      2.3   934.8    0.00       0    81.6
 217    4:10   87.1    17    4.5   111     10.2   934.7    0.00       0    81.5

Return to Henderson, Nevada graphs page.


Western Regional Climate Center,wrcc@dri.edu